Ocean Navigator — WSC2552 — position and weather

sailwx.info

Track history (hours):
 
Tides and Currents Weather Stations Pressure Air Temp Water Temp Dewpoint Dewpoint Depression Visibility Wind Speed Wind Dir Waves Ship Positions

Ocean Navigator

Owner: OCEAN NAVIGATOR INC, SEATTLE, WA. More information available from US FCC via Universal Licensing System and Coast Guard Vessel Documentation Center.

Last reported at 2014-Oct-25 20:04 UTC. Time now 2014-Oct-25 21:14 UTC.
Position N 58°12' W 135°27'.

MMSI: 366358000.

Date/timePositionNaut miles runAvg speedWind from/ knotsBaromVisibWave heightAir tempDewpointWater temp
2014-Oct-25 20:04N 58°12' W 135°27'510.0
2014-Oct-25 19:34N 58°15' W 135°36'10 9.8
2014-Oct-25 18:33N 58°17' W 135°54'10 9.4
2014-Oct-25 17:32N 58°16' W 136°12'7 0.2
2014-Oct-23 22:25N 58°16' W 135°60'  
2014-Oct-20 18:18N 54°33' W 130°43'7 9.5
2014-Oct-20 17:32N 54°26' W 130°40'1110.7
2014-Oct-20 16:33N 54°17' W 130°33'193 8.3
2014-Oct-19 17:24N 51°30' W 127°51'19 9.1
2014-Oct-19 15:22N 51°12' W 127°51'7 9.2
2014-Oct-19 14:33N 51°06' W 127°44'10 9.7
2014-Oct-19 13:33N 50°59' W 127°33'1010.0
2014-Oct-19 12:33N 50°53' W 127°21'1110.2
2014-Oct-19 11:27N 50°45' W 127°07'20 9.9
2014-Oct-19 09:27N 50°34' W 126°41'53 9.0
2014-Oct-19 03:32N 50°15' W 125°23'10 9.9
2014-Oct-19 02:32N 50°06' W 125°18'9 9.3
2014-Oct-19 01:32N 49°58' W 125°10'6 6.3
2014-Oct-19 00:33N 49°54' W 125°03'6 5.6
2014-Oct-18 23:32N 49°51' W 124°56'6 5.8
2014-Oct-18 22:32N 49°47' W 124°49'7 6.3
2014-Oct-18 21:29N 49°43' W 124°41'7 7.5
2014-Oct-18 20:33N 49°39' W 124°32'7 7.2
2014-Oct-18 19:33N 49°34' W 124°23'9 9.0
2014-Oct-18 18:33N 49°30' W 124°11'1010.4
2014-Oct-18 17:33N 49°24' W 123°59'1010.0
2014-Oct-18 16:31N 49°18' W 123°46'10 9.8
2014-Oct-18 15:30N 49°11' W 123°34'9 9.5
2014-Oct-18 14:33N 49°06' W 123°23'9 9.2
2014-Oct-18 13:33N 48°60' W 123°13'9 8.5
2014-Oct-18 12:32N 48°54' W 123°03'9 8.5
2014-Oct-18 11:30N 48°48' W 122°53'3 9.2
2014-Oct-18 11:08N 48°46' W 122°48'5 9.0
2014-Oct-18 10:33N 48°42' W 122°43'9 8.5
2014-Oct-18 09:33N 48°34' W 122°45'9 9.2
2014-Oct-18 08:33N 48°25' W 122°44'12 9.2
2014-Oct-18 07:16N 48°13' W 122°48'8 8.9
2014-Oct-18 06:18N 48°07' W 122°39'7 9.8
2014-Oct-18 05:33N 48°00' W 122°36'5 9.1
2014-Oct-18 05:02N 47°57' W 122°31'4 9.2
2014-Oct-18 04:33N 47°53' W 122°28'0 8.6
2014-Oct-18 04:32N 47°53' W 122°28'9 9.6
2014-Oct-18 03:33N 47°43' W 122°26'0 8.8
2014-Oct-18 03:32N 47°43' W 122°26'8 8.1
2014-Oct-18 02:33N 47°36' W 122°22'0 2.5
2014-Oct-18 02:32N 47°36' W 122°22'3 2.7
2014-Oct-18 01:33N 47°33' W 122°21'0 0.0
2014-Oct-18 01:32N 47°33' W 122°21'0 0.0
2014-Oct-18 00:33N 47°33' W 122°21'0 0.2
2014-Oct-18 00:32N 47°33' W 122°21'0 0.0
2014-Oct-17 23:33N 47°33' W 122°21'0 0.0
2014-Oct-17 23:32N 47°33' W 122°21'0 0.0
2014-Oct-17 22:33N 47°33' W 122°21'0 0.2
2014-Oct-17 22:32N 47°33' W 122°21'4 4.5
2014-Oct-17 21:33N 47°37' W 122°24'0 9.8
2014-Oct-17 21:31N 47°37' W 122°24'3 3.0
2014-Oct-17 20:33N 47°40' W 122°24'0 1.3
2014-Oct-17 20:31N 47°40' W 122°24'1 1.4
2014-Oct-17 19:33N 47°39' W 122°22'0 0.0
2014-Oct-17 19:31N 47°39' W 122°22'0 0.0
2014-Oct-17 18:33N 47°39' W 122°22'0 0.0
2014-Oct-17 18:31N 47°39' W 122°22'0 0.0
2014-Oct-17 17:33N 47°39' W 122°22'0 0.0
2014-Oct-17 17:31N 47°39' W 122°22'  
Track history (hours):
 
Tides and Currents Weather Stations Pressure Air Temp Water Temp Dewpoint Dewpoint Depression Visibility Wind Speed Wind Dir Waves Ship Positions

Ocean Navigator

Owner: OCEAN NAVIGATOR INC, SEATTLE, WA. More information available from US FCC via Universal Licensing System and Coast Guard Vessel Documentation Center.

Last reported at 2014-Oct-25 20:04 UTC. Time now 2014-Oct-25 21:14 UTC.
Position N 58°12' W 135°27'.

MMSI: 366358000.

Date/timePositionNaut miles runAvg speedWind from/ knotsBaromVisibWave heightAir tempDewpointWater temp
2014-Oct-25 20:04N 58°12' W 135°27'510.0
2014-Oct-25 19:34N 58°15' W 135°36'10 9.8
2014-Oct-25 18:33N 58°17' W 135°54'10 9.4
2014-Oct-25 17:32N 58°16' W 136°12'7 0.2
2014-Oct-23 22:25N 58°16' W 135°60'  
2014-Oct-20 18:18N 54°33' W 130°43'7 9.5
2014-Oct-20 17:32N 54°26' W 130°40'1110.7
2014-Oct-20 16:33N 54°17' W 130°33'193 8.3
2014-Oct-19 17:24N 51°30' W 127°51'19 9.1
2014-Oct-19 15:22N 51°12' W 127°51'7 9.2
2014-Oct-19 14:33N 51°06' W 127°44'10 9.7
2014-Oct-19 13:33N 50°59' W 127°33'1010.0
2014-Oct-19 12:33N 50°53' W 127°21'1110.2
2014-Oct-19 11:27N 50°45' W 127°07'20 9.9
2014-Oct-19 09:27N 50°34' W 126°41'53 9.0
2014-Oct-19 03:32N 50°15' W 125°23'10 9.9
2014-Oct-19 02:32N 50°06' W 125°18'9 9.3
2014-Oct-19 01:32N 49°58' W 125°10'6 6.3
2014-Oct-19 00:33N 49°54' W 125°03'6 5.6
2014-Oct-18 23:32N 49°51' W 124°56'6 5.8
2014-Oct-18 22:32N 49°47' W 124°49'7 6.3
2014-Oct-18 21:29N 49°43' W 124°41'7 7.5
2014-Oct-18 20:33N 49°39' W 124°32'7 7.2
2014-Oct-18 19:33N 49°34' W 124°23'9 9.0
2014-Oct-18 18:33N 49°30' W 124°11'1010.4
2014-Oct-18 17:33N 49°24' W 123°59'1010.0
2014-Oct-18 16:31N 49°18' W 123°46'10 9.8
2014-Oct-18 15:30N 49°11' W 123°34'9 9.5
2014-Oct-18 14:33N 49°06' W 123°23'9 9.2
2014-Oct-18 13:33N 48°60' W 123°13'9 8.5
2014-Oct-18 12:32N 48°54' W 123°03'9 8.5
2014-Oct-18 11:30N 48°48' W 122°53'3 9.2
2014-Oct-18 11:08N 48°46' W 122°48'5 9.0
2014-Oct-18 10:33N 48°42' W 122°43'9 8.5
2014-Oct-18 09:33N 48°34' W 122°45'9 9.2
2014-Oct-18 08:33N 48°25' W 122°44'12 9.2
2014-Oct-18 07:16N 48°13' W 122°48'8 8.9
2014-Oct-18 06:18N 48°07' W 122°39'7 9.8
2014-Oct-18 05:33N 48°00' W 122°36'5 9.1
2014-Oct-18 05:02N 47°57' W 122°31'4 9.2
2014-Oct-18 04:33N 47°53' W 122°28'0 8.6
2014-Oct-18 04:32N 47°53' W 122°28'9 9.6
2014-Oct-18 03:33N 47°43' W 122°26'0 8.8
2014-Oct-18 03:32N 47°43' W 122°26'8 8.1
2014-Oct-18 02:33N 47°36' W 122°22'0 2.5
2014-Oct-18 02:32N 47°36' W 122°22'3 2.7
2014-Oct-18 01:33N 47°33' W 122°21'0 0.0
2014-Oct-18 01:32N 47°33' W 122°21'0 0.0
2014-Oct-18 00:33N 47°33' W 122°21'0 0.2
2014-Oct-18 00:32N 47°33' W 122°21'0 0.0
2014-Oct-17 23:33N 47°33' W 122°21'0 0.0
2014-Oct-17 23:32N 47°33' W 122°21'0 0.0
2014-Oct-17 22:33N 47°33' W 122°21'0 0.2
2014-Oct-17 22:32N 47°33' W 122°21'4 4.5
2014-Oct-17 21:33N 47°37' W 122°24'0 9.8
2014-Oct-17 21:31N 47°37' W 122°24'3 3.0
2014-Oct-17 20:33N 47°40' W 122°24'0 1.3
2014-Oct-17 20:31N 47°40' W 122°24'1 1.4
2014-Oct-17 19:33N 47°39' W 122°22'0 0.0
2014-Oct-17 19:31N 47°39' W 122°22'0 0.0
2014-Oct-17 18:33N 47°39' W 122°22'0 0.0
2014-Oct-17 18:31N 47°39' W 122°22'0 0.0
2014-Oct-17 17:33N 47°39' W 122°22'0 0.0
2014-Oct-17 17:31N 47°39' W 122°22'  

Dump ship's entire track history